sensor_id;sensor_type;location;lat;lon;timestamp;temperature;humidity
14749;DHT22;7466;53.574;9.976;2023-08-08T00:02:05;13.10;99.90
14749;DHT22;7466;53.574;9.976;2023-08-08T00:04:33;13.10;99.90
14749;DHT22;7466;53.574;9.976;2023-08-08T00:07:00;13.10;99.90
14749;DHT22;7466;53.574;9.976;2023-08-08T00:09:27;13.10;99.90
14749;DHT22;7466;53.574;9.976;2023-08-08T00:11:54;13.10;99.90
14749;DHT22;7466;53.574;9.976;2023-08-08T00:14:22;13.00;99.90
14749;DHT22;7466;53.574;9.976;2023-08-08T00:16:49;13.00;99.90
14749;DHT22;7466;53.574;9.976;2023-08-08T00:19:16;13.00;99.90
14749;DHT22;7466;53.574;9.976;2023-08-08T00:21:44;12.90;99.90
14749;DHT22;7466;53.574;9.976;2023-08-08T00:24:10;12.80;99.90
14749;DHT22;7466;53.574;9.976;2023-08-08T00:26:37;12.80;99.90
14749;DHT22;7466;53.574;9.976;2023-08-08T00:29:04;12.80;99.90
14749;DHT22;7466;53.574;9.976;2023-08-08T00:31:31;12.80;99.90
14749;DHT22;7466;53.574;9.976;2023-08-08T00:33:58;12.70;99.90
14749;DHT22;7466;53.574;9.976;2023-08-08T00:36:25;12.80;99.90
14749;DHT22;7466;53.574;9.976;2023-08-08T00:38:53;12.70;99.90
14749;DHT22;7466;53.574;9.976;2023-08-08T00:41:19;12.70;99.90
14749;DHT22;7466;53.574;9.976;2023-08-08T00:43:47;12.70;99.90
14749;DHT22;7466;53.574;9.976;2023-08-08T00:46:15;12.70;99.90
14749;DHT22;7466;53.574;9.976;2023-08-08T00:48:42;12.70;99.90
14749;DHT22;7466;53.574;9.976;2023-08-08T00:51:09;12.60;99.90
14749;DHT22;7466;53.574;9.976;2023-08-08T00:53:36;12.60;99.90
14749;DHT22;7466;53.574;9.976;2023-08-08T00:56:05;12.50;99.90
14749;DHT22;7466;53.574;9.976;2023-08-08T00:58:32;12.50;99.90
14749;DHT22;7466;53.574;9.976;2023-08-08T01:00:58;12.40;99.90
14749;DHT22;7466;53.574;9.976;2023-08-08T01:03:25;12.40;99.90
14749;DHT22;7466;53.574;9.976;2023-08-08T01:05:58;12.40;99.90
14749;DHT22;7466;53.574;9.976;2023-08-08T01:08:32;12.40;99.90
14749;DHT22;7466;53.574;9.976;2023-08-08T01:11:04;12.40;99.90
14749;DHT22;7466;53.574;9.976;2023-08-08T01:13:32;12.40;99.90
14749;DHT22;7466;53.574;9.976;2023-08-08T01:15:59;12.40;99.90
14749;DHT22;7466;53.574;9.976;2023-08-08T01:20:59;12.40;99.90
14749;DHT22;7466;53.574;9.976;2023-08-08T01:23:30;12.50;99.90
14749;DHT22;7466;53.574;9.976;2023-08-08T01:25:58;12.50;99.90
14749;DHT22;7466;53.574;9.976;2023-08-08T01:28:26;12.50;99.90
14749;DHT22;7466;53.574;9.976;2023-08-08T01:30:52;12.50;99.90
14749;DHT22;7466;53.574;9.976;2023-08-08T01:33:19;12.60;99.90
14749;DHT22;7466;53.574;9.976;2023-08-08T01:35:52;12.60;99.90
14749;DHT22;7466;53.574;9.976;2023-08-08T01:38:23;12.60;99.90
14749;DHT22;7466;53.574;9.976;2023-08-08T01:40:51;12.60;99.90
14749;DHT22;7466;53.574;9.976;2023-08-08T01:43:21;12.60;99.90
14749;DHT22;7466;53.574;9.976;2023-08-08T01:45:48;12.60;99.90
14749;DHT22;7466;53.574;9.976;2023-08-08T01:48:15;12.60;99.90
14749;DHT22;7466;53.574;9.976;2023-08-08T01:50:41;12.60;99.90
14749;DHT22;7466;53.574;9.976;2023-08-08T01:53:08;12.60;99.90
14749;DHT22;7466;53.574;9.976;2023-08-08T01:55:35;12.60;99.90
14749;DHT22;7466;53.574;9.976;2023-08-08T01:58:01;12.60;99.90
14749;DHT22;7466;53.574;9.976;2023-08-08T02:00:29;12.70;99.90
14749;DHT22;7466;53.574;9.976;2023-08-08T02:02:55;12.60;99.90
14749;DHT22;7466;53.574;9.976;2023-08-08T02:05:22;12.60;99.90
14749;DHT22;7466;53.574;9.976;2023-08-08T02:07:49;12.60;99.90
14749;DHT22;7466;53.574;9.976;2023-08-08T02:10:16;12.60;99.90
14749;DHT22;7466;53.574;9.976;2023-08-08T02:12:42;12.60;99.90
14749;DHT22;7466;53.574;9.976;2023-08-08T02:15:09;12.60;99.90
14749;DHT22;7466;53.574;9.976;2023-08-08T02:17:37;12.50;99.90
14749;DHT22;7466;53.574;9.976;2023-08-08T02:20:05;12.60;99.90
14749;DHT22;7466;53.574;9.976;2023-08-08T02:22:33;12.70;99.90
14749;DHT22;7466;53.574;9.976;2023-08-08T02:24:59;12.70;99.90
14749;DHT22;7466;53.574;9.976;2023-08-08T02:27:26;12.70;99.90
14749;DHT22;7466;53.574;9.976;2023-08-08T02:29:53;12.70;99.90
14749;DHT22;7466;53.574;9.976;2023-08-08T02:32:20;12.70;99.90
14749;DHT22;7466;53.574;9.976;2023-08-08T02:34:48;12.70;99.90
14749;DHT22;7466;53.574;9.976;2023-08-08T02:37:14;12.70;99.90
14749;DHT22;7466;53.574;9.976;2023-08-08T02:39:42;12.70;99.90
14749;DHT22;7466;53.574;9.976;2023-08-08T02:42:08;12.70;99.90
14749;DHT22;7466;53.574;9.976;2023-08-08T02:44:35;12.70;99.90
14749;DHT22;7466;53.574;9.976;2023-08-08T02:47:02;12.70;99.90
14749;DHT22;7466;53.574;9.976;2023-08-08T02:49:29;12.70;99.90
14749;DHT22;7466;53.574;9.976;2023-08-08T02:51:57;12.70;99.90
14749;DHT22;7466;53.574;9.976;2023-08-08T02:54:23;12.70;99.90
14749;DHT22;7466;53.574;9.976;2023-08-08T02:56:50;12.70;99.90
14749;DHT22;7466;53.574;9.976;2023-08-08T02:59:17;12.70;99.90
14749;DHT22;7466;53.574;9.976;2023-08-08T03:01:44;12.60;99.90
14749;DHT22;7466;53.574;9.976;2023-08-08T03:04:10;12.70;99.90
14749;DHT22;7466;53.574;9.976;2023-08-08T03:06:37;12.70;99.90
14749;DHT22;7466;53.574;9.976;2023-08-08T03:09:05;12.70;99.90
14749;DHT22;7466;53.574;9.976;2023-08-08T03:11:32;12.70;99.90
14749;DHT22;7466;53.574;9.976;2023-08-08T03:13:59;12.70;99.90
14749;DHT22;7466;53.574;9.976;2023-08-08T03:16:25;12.70;99.90
14749;DHT22;7466;53.574;9.976;2023-08-08T03:18:52;12.70;99.90
14749;DHT22;7466;53.574;9.976;2023-08-08T03:21:19;12.70;99.90
14749;DHT22;7466;53.574;9.976;2023-08-08T03:23:45;12.70;99.90
14749;DHT22;7466;53.574;9.976;2023-08-08T03:26:13;12.70;99.90
14749;DHT22;7466;53.574;9.976;2023-08-08T03:28:40;12.70;99.90
14749;DHT22;7466;53.574;9.976;2023-08-08T03:31:07;12.70;99.90
14749;DHT22;7466;53.574;9.976;2023-08-08T03:33:34;12.70;99.90
14749;DHT22;7466;53.574;9.976;2023-08-08T03:36:00;12.70;99.90
14749;DHT22;7466;53.574;9.976;2023-08-08T03:38:27;12.70;99.90
14749;DHT22;7466;53.574;9.976;2023-08-08T03:40:54;12.70;99.90
14749;DHT22;7466;53.574;9.976;2023-08-08T03:43:22;12.70;99.90
14749;DHT22;7466;53.574;9.976;2023-08-08T03:45:48;12.70;99.90
14749;DHT22;7466;53.574;9.976;2023-08-08T03:48:15;12.60;99.90
14749;DHT22;7466;53.574;9.976;2023-08-08T03:50:42;12.60;99.90
14749;DHT22;7466;53.574;9.976;2023-08-08T03:53:09;12.60;99.90
14749;DHT22;7466;53.574;9.976;2023-08-08T03:55:35;12.60;99.90
14749;DHT22;7466;53.574;9.976;2023-08-08T03:58:02;12.60;99.90
14749;DHT22;7466;53.574;9.976;2023-08-08T04:00:31;12.60;99.90
14749;DHT22;7466;53.574;9.976;2023-08-08T04:02:58;12.60;99.90
14749;DHT22;7466;53.574;9.976;2023-08-08T04:05:25;12.60;99.90
14749;DHT22;7466;53.574;9.976;2023-08-08T04:07:52;12.60;99.90
14749;DHT22;7466;53.574;9.976;2023-08-08T04:10:18;12.60;99.90
14749;DHT22;7466;53.574;9.976;2023-08-08T04:12:45;12.60;99.90
14749;DHT22;7466;53.574;9.976;2023-08-08T04:15:12;12.60;99.90
14749;DHT22;7466;53.574;9.976;2023-08-08T04:17:40;12.60;99.90
14749;DHT22;7466;53.574;9.976;2023-08-08T04:20:08;12.60;99.90
14749;DHT22;7466;53.574;9.976;2023-08-08T04:22:35;12.60;99.90
14749;DHT22;7466;53.574;9.976;2023-08-08T04:25:03;12.60;99.90
14749;DHT22;7466;53.574;9.976;2023-08-08T04:27:30;12.60;99.90
14749;DHT22;7466;53.574;9.976;2023-08-08T04:29:57;12.60;99.90
14749;DHT22;7466;53.574;9.976;2023-08-08T04:32:24;12.60;99.90
14749;DHT22;7466;53.574;9.976;2023-08-08T04:34:52;12.60;99.90
14749;DHT22;7466;53.574;9.976;2023-08-08T04:37:18;12.60;99.90
14749;DHT22;7466;53.574;9.976;2023-08-08T04:39:45;12.60;99.90
14749;DHT22;7466;53.574;9.976;2023-08-08T04:42:12;12.60;99.90
14749;DHT22;7466;53.574;9.976;2023-08-08T04:44:38;12.60;99.90
14749;DHT22;7466;53.574;9.976;2023-08-08T04:47:05;12.60;99.90
14749;DHT22;7466;53.574;9.976;2023-08-08T04:49:32;12.60;99.90
14749;DHT22;7466;53.574;9.976;2023-08-08T04:52:00;12.60;99.90
14749;DHT22;7466;53.574;9.976;2023-08-08T04:54:27;12.60;99.90
14749;DHT22;7466;53.574;9.976;2023-08-08T04:56:54;12.70;99.90
14749;DHT22;7466;53.574;9.976;2023-08-08T04:59:20;12.70;99.90
14749;DHT22;7466;53.574;9.976;2023-08-08T05:01:47;12.70;99.90
14749;DHT22;7466;53.574;9.976;2023-08-08T05:04:14;12.80;99.90
14749;DHT22;7466;53.574;9.976;2023-08-08T05:06:41;12.80;99.90
14749;DHT22;7466;53.574;9.976;2023-08-08T05:09:09;12.80;99.90
14749;DHT22;7466;53.574;9.976;2023-08-08T05:11:36;12.90;99.90
14749;DHT22;7466;53.574;9.976;2023-08-08T05:14:03;13.00;99.90
14749;DHT22;7466;53.574;9.976;2023-08-08T05:16:29;13.00;99.90
14749;DHT22;7466;53.574;9.976;2023-08-08T05:18:56;13.10;99.90
14749;DHT22;7466;53.574;9.976;2023-08-08T05:21:23;13.20;99.90
14749;DHT22;7466;53.574;9.976;2023-08-08T05:23:49;13.30;99.90
14749;DHT22;7466;53.574;9.976;2023-08-08T05:26:18;13.40;99.90
14749;DHT22;7466;53.574;9.976;2023-08-08T05:28:44;13.40;99.90
14749;DHT22;7466;53.574;9.976;2023-08-08T05:31:11;13.50;99.90
14749;DHT22;7466;53.574;9.976;2023-08-08T05:33:38;13.60;99.90
14749;DHT22;7466;53.574;9.976;2023-08-08T05:36:04;13.70;99.90
14749;DHT22;7466;53.574;9.976;2023-08-08T05:38:31;13.80;99.90
14749;DHT22;7466;53.574;9.976;2023-08-08T05:40:58;13.80;99.90
14749;DHT22;7466;53.574;9.976;2023-08-08T05:43:26;13.90;99.90
14749;DHT22;7466;53.574;9.976;2023-08-08T05:45:53;14.00;99.90
14749;DHT22;7466;53.574;9.976;2023-08-08T05:48:19;14.00;99.90
14749;DHT22;7466;53.574;9.976;2023-08-08T05:50:46;14.10;99.90
14749;DHT22;7466;53.574;9.976;2023-08-08T05:53:13;14.20;99.90
14749;DHT22;7466;53.574;9.976;2023-08-08T05:55:40;14.10;99.90
14749;DHT22;7466;53.574;9.976;2023-08-08T05:58:07;14.20;99.90
14749;DHT22;7466;53.574;9.976;2023-08-08T06:00:35;14.10;99.90
14749;DHT22;7466;53.574;9.976;2023-08-08T06:03:02;14.20;99.90
14749;DHT22;7466;53.574;9.976;2023-08-08T06:05:29;14.30;99.90
14749;DHT22;7466;53.574;9.976;2023-08-08T06:07:55;14.30;99.90
14749;DHT22;7466;53.574;9.976;2023-08-08T06:10:22;14.30;99.90
14749;DHT22;7466;53.574;9.976;2023-08-08T06:12:50;14.20;99.90
14749;DHT22;7466;53.574;9.976;2023-08-08T06:15:17;14.20;99.90
14749;DHT22;7466;53.574;9.976;2023-08-08T06:17:45;14.20;99.90
14749;DHT22;7466;53.574;9.976;2023-08-08T06:20:12;14.20;99.90
14749;DHT22;7466;53.574;9.976;2023-08-08T06:22:39;14.10;99.90
14749;DHT22;7466;53.574;9.976;2023-08-08T06:25:06;14.10;99.90
14749;DHT22;7466;53.574;9.976;2023-08-08T06:27:33;14.10;99.90
14749;DHT22;7466;53.574;9.976;2023-08-08T06:30:00;14.20;99.90
14749;DHT22;7466;53.574;9.976;2023-08-08T06:32:28;14.40;99.90
14749;DHT22;7466;53.574;9.976;2023-08-08T06:34:56;14.60;99.90
14749;DHT22;7466;53.574;9.976;2023-08-08T06:37:23;14.80;99.90
14749;DHT22;7466;53.574;9.976;2023-08-08T06:39:50;14.80;99.90
14749;DHT22;7466;53.574;9.976;2023-08-08T06:42:16;14.70;99.90
14749;DHT22;7466;53.574;9.976;2023-08-08T06:44:44;14.70;99.90
14749;DHT22;7466;53.574;9.976;2023-08-08T06:47:11;14.60;99.90
14749;DHT22;7466;53.574;9.976;2023-08-08T06:49:38;14.60;99.90
14749;DHT22;7466;53.574;9.976;2023-08-08T06:52:06;14.60;99.90
14749;DHT22;7466;53.574;9.976;2023-08-08T06:54:33;14.70;99.90
14749;DHT22;7466;53.574;9.976;2023-08-08T06:57:00;14.90;99.90
14749;DHT22;7466;53.574;9.976;2023-08-08T06:59:27;15.20;99.90
14749;DHT22;7466;53.574;9.976;2023-08-08T07:01:54;15.30;99.90
14749;DHT22;7466;53.574;9.976;2023-08-08T07:04:22;15.40;99.90
14749;DHT22;7466;53.574;9.976;2023-08-08T07:06:48;15.30;99.90
14749;DHT22;7466;53.574;9.976;2023-08-08T07:09:16;15.30;99.90
14749;DHT22;7466;53.574;9.976;2023-08-08T07:11:43;15.20;99.90
14749;DHT22;7466;53.574;9.976;2023-08-08T07:14:10;15.10;99.90
14749;DHT22;7466;53.574;9.976;2023-08-08T07:16:37;15.30;99.90
14749;DHT22;7466;53.574;9.976;2023-08-08T07:19:03;15.50;99.90
14749;DHT22;7466;53.574;9.976;2023-08-08T07:21:31;15.60;99.90
14749;DHT22;7466;53.574;9.976;2023-08-08T07:23:58;15.60;99.90
14749;DHT22;7466;53.574;9.976;2023-08-08T07:26:26;15.60;99.90
14749;DHT22;7466;53.574;9.976;2023-08-08T07:28:53;15.80;99.90
14749;DHT22;7466;53.574;9.976;2023-08-08T07:31:19;16.00;99.90
14749;DHT22;7466;53.574;9.976;2023-08-08T07:33:46;15.90;99.90
14749;DHT22;7466;53.574;9.976;2023-08-08T07:36:13;15.80;99.90
14749;DHT22;7466;53.574;9.976;2023-08-08T07:38:39;16.10;99.90
14749;DHT22;7466;53.574;9.976;2023-08-08T07:41:06;16.30;99.90
14749;DHT22;7466;53.574;9.976;2023-08-08T07:43:34;16.40;99.90
14749;DHT22;7466;53.574;9.976;2023-08-08T07:46:01;16.50;99.90
14749;DHT22;7466;53.574;9.976;2023-08-08T07:48:27;16.80;99.90
14749;DHT22;7466;53.574;9.976;2023-08-08T07:50:54;16.80;99.90
14749;DHT22;7466;53.574;9.976;2023-08-08T07:53:21;16.70;99.90
14749;DHT22;7466;53.574;9.976;2023-08-08T07:55:47;16.90;99.90
14749;DHT22;7466;53.574;9.976;2023-08-08T07:58:14;16.80;99.90
14749;DHT22;7466;53.574;9.976;2023-08-08T08:00:42;16.70;99.90
14749;DHT22;7466;53.574;9.976;2023-08-08T08:03:10;16.60;99.90
14749;DHT22;7466;53.574;9.976;2023-08-08T08:05:36;16.50;99.90
14749;DHT22;7466;53.574;9.976;2023-08-08T08:08:04;16.50;99.90
14749;DHT22;7466;53.574;9.976;2023-08-08T08:10:30;16.50;99.90
14749;DHT22;7466;53.574;9.976;2023-08-08T08:12:57;16.50;99.90
14749;DHT22;7466;53.574;9.976;2023-08-08T08:15:24;16.60;99.90
14749;DHT22;7466;53.574;9.976;2023-08-08T08:17:52;16.60;99.90
14749;DHT22;7466;53.574;9.976;2023-08-08T08:20:19;16.40;99.90
14749;DHT22;7466;53.574;9.976;2023-08-08T08:22:46;16.30;99.90
14749;DHT22;7466;53.574;9.976;2023-08-08T08:25:13;16.20;99.90
14749;DHT22;7466;53.574;9.976;2023-08-08T08:27:40;16.10;99.90
14749;DHT22;7466;53.574;9.976;2023-08-08T08:30:08;16.10;99.90
14749;DHT22;7466;53.574;9.976;2023-08-08T08:32:36;16.00;99.90
14749;DHT22;7466;53.574;9.976;2023-08-08T08:35:06;15.90;99.90
14749;DHT22;7466;53.574;9.976;2023-08-08T08:37:34;15.90;99.90
14749;DHT22;7466;53.574;9.976;2023-08-08T08:40:01;16.00;99.90
14749;DHT22;7466;53.574;9.976;2023-08-08T08:42:30;16.10;99.90
14749;DHT22;7466;53.574;9.976;2023-08-08T08:44:59;16.00;99.90
14749;DHT22;7466;53.574;9.976;2023-08-08T08:47:28;15.90;99.90
14749;DHT22;7466;53.574;9.976;2023-08-08T08:49:57;15.90;99.90
14749;DHT22;7466;53.574;9.976;2023-08-08T08:52:25;15.90;99.90
14749;DHT22;7466;53.574;9.976;2023-08-08T08:54:52;15.90;99.90
14749;DHT22;7466;53.574;9.976;2023-08-08T08:57:21;16.00;99.90
14749;DHT22;7466;53.574;9.976;2023-08-08T08:59:48;16.40;99.90
14749;DHT22;7466;53.574;9.976;2023-08-08T09:02:15;16.30;99.90
14749;DHT22;7466;53.574;9.976;2023-08-08T09:04:43;16.40;99.90
14749;DHT22;7466;53.574;9.976;2023-08-08T09:07:12;16.40;99.90
14749;DHT22;7466;53.574;9.976;2023-08-08T09:09:42;16.40;99.90
14749;DHT22;7466;53.574;9.976;2023-08-08T09:12:09;16.40;99.90
14749;DHT22;7466;53.574;9.976;2023-08-08T09:14:39;16.30;99.90
14749;DHT22;7466;53.574;9.976;2023-08-08T09:17:10;16.20;99.90
14749;DHT22;7466;53.574;9.976;2023-08-08T09:19:37;16.20;99.90
14749;DHT22;7466;53.574;9.976;2023-08-08T09:22:04;16.20;99.90
14749;DHT22;7466;53.574;9.976;2023-08-08T09:24:31;16.40;99.90
14749;DHT22;7466;53.574;9.976;2023-08-08T09:27:00;16.20;99.90
14749;DHT22;7466;53.574;9.976;2023-08-08T09:29:27;16.20;99.90
14749;DHT22;7466;53.574;9.976;2023-08-08T09:31:54;16.20;99.90
14749;DHT22;7466;53.574;9.976;2023-08-08T09:34:24;16.20;99.90
14749;DHT22;7466;53.574;9.976;2023-08-08T09:36:51;16.30;99.90
14749;DHT22;7466;53.574;9.976;2023-08-08T09:39:19;16.30;99.90
14749;DHT22;7466;53.574;9.976;2023-08-08T09:41:46;16.30;99.90
14749;DHT22;7466;53.574;9.976;2023-08-08T09:44:14;16.00;99.90
14749;DHT22;7466;53.574;9.976;2023-08-08T09:46:42;15.90;99.90
14749;DHT22;7466;53.574;9.976;2023-08-08T09:49:10;15.80;99.90
14749;DHT22;7466;53.574;9.976;2023-08-08T09:51:37;15.70;99.90
14749;DHT22;7466;53.574;9.976;2023-08-08T09:54:05;15.70;99.90
14749;DHT22;7466;53.574;9.976;2023-08-08T09:56:33;15.70;99.90
14749;DHT22;7466;53.574;9.976;2023-08-08T09:59:01;15.70;99.90
14749;DHT22;7466;53.574;9.976;2023-08-08T10:01:31;15.80;99.90
14749;DHT22;7466;53.574;9.976;2023-08-08T10:03:58;15.70;99.90
14749;DHT22;7466;53.574;9.976;2023-08-08T10:06:26;15.50;99.90
14749;DHT22;7466;53.574;9.976;2023-08-08T10:08:53;15.40;99.90
14749;DHT22;7466;53.574;9.976;2023-08-08T10:11:21;15.10;99.90
14749;DHT22;7466;53.574;9.976;2023-08-08T10:13:49;14.70;99.90
14749;DHT22;7466;53.574;9.976;2023-08-08T10:16:17;14.60;99.90
14749;DHT22;7466;53.574;9.976;2023-08-08T10:18:45;14.60;99.90
14749;DHT22;7466;53.574;9.976;2023-08-08T10:21:12;14.40;99.90
14749;DHT22;7466;53.574;9.976;2023-08-08T10:23:39;14.30;99.90
14749;DHT22;7466;53.574;9.976;2023-08-08T10:26:18;14.30;99.90
14749;DHT22;7466;53.574;9.976;2023-08-08T10:28:52;14.20;99.90
14749;DHT22;7466;53.574;9.976;2023-08-08T10:31:20;14.20;99.90
14749;DHT22;7466;53.574;9.976;2023-08-08T10:33:49;14.10;99.90
14749;DHT22;7466;53.574;9.976;2023-08-08T10:36:16;14.00;99.90
14749;DHT22;7466;53.574;9.976;2023-08-08T10:38:44;14.10;99.90
14749;DHT22;7466;53.574;9.976;2023-08-08T10:41:14;14.00;99.90
14749;DHT22;7466;53.574;9.976;2023-08-08T10:43:48;14.20;99.90
14749;DHT22;7466;53.574;9.976;2023-08-08T10:46:23;14.30;99.90
14749;DHT22;7466;53.574;9.976;2023-08-08T10:48:52;14.50;99.90
14749;DHT22;7466;53.574;9.976;2023-08-08T10:51:19;14.50;99.90
14749;DHT22;7466;53.574;9.976;2023-08-08T10:53:47;14.60;99.90
14749;DHT22;7466;53.574;9.976;2023-08-08T10:56:18;14.60;99.90
14749;DHT22;7466;53.574;9.976;2023-08-08T10:58:48;14.60;99.90
14749;DHT22;7466;53.574;9.976;2023-08-08T11:01:15;14.50;99.90
14749;DHT22;7466;53.574;9.976;2023-08-08T11:03:42;14.30;99.90
14749;DHT22;7466;53.574;9.976;2023-08-08T11:06:11;14.30;99.90
14749;DHT22;7466;53.574;9.976;2023-08-08T11:08:38;14.40;99.90
14749;DHT22;7466;53.574;9.976;2023-08-08T11:11:05;14.40;99.90
14749;DHT22;7466;53.574;9.976;2023-08-08T11:13:32;14.60;99.90
14749;DHT22;7466;53.574;9.976;2023-08-08T11:15:59;14.60;99.90
14749;DHT22;7466;53.574;9.976;2023-08-08T11:18:27;14.60;99.90
14749;DHT22;7466;53.574;9.976;2023-08-08T11:20:54;14.80;99.90
14749;DHT22;7466;53.574;9.976;2023-08-08T11:23:22;14.60;99.90
14749;DHT22;7466;53.574;9.976;2023-08-08T11:25:49;14.50;99.90
14749;DHT22;7466;53.574;9.976;2023-08-08T11:28:16;14.30;99.90
14749;DHT22;7466;53.574;9.976;2023-08-08T11:30:45;14.10;99.90
14749;DHT22;7466;53.574;9.976;2023-08-08T11:33:13;14.00;99.90
14749;DHT22;7466;53.574;9.976;2023-08-08T11:35:44;14.00;99.90
14749;DHT22;7466;53.574;9.976;2023-08-08T11:38:13;13.90;99.90
14749;DHT22;7466;53.574;9.976;2023-08-08T11:40:41;13.90;99.90
14749;DHT22;7466;53.574;9.976;2023-08-08T11:43:08;14.60;99.90
14749;DHT22;7466;53.574;9.976;2023-08-08T11:45:37;14.90;99.90
14749;DHT22;7466;53.574;9.976;2023-08-08T11:48:04;15.00;99.90
14749;DHT22;7466;53.574;9.976;2023-08-08T11:50:31;15.10;99.90
14749;DHT22;7466;53.574;9.976;2023-08-08T11:52:59;15.20;99.90
14749;DHT22;7466;53.574;9.976;2023-08-08T11:55:29;15.00;99.90
14749;DHT22;7466;53.574;9.976;2023-08-08T11:57:58;14.90;99.90
14749;DHT22;7466;53.574;9.976;2023-08-08T12:00:27;14.80;99.90
14749;DHT22;7466;53.574;9.976;2023-08-08T12:02:55;14.80;99.90
14749;DHT22;7466;53.574;9.976;2023-08-08T12:05:22;14.60;99.90
14749;DHT22;7466;53.574;9.976;2023-08-08T12:07:51;15.10;99.90
14749;DHT22;7466;53.574;9.976;2023-08-08T12:10:19;15.30;99.90
14749;DHT22;7466;53.574;9.976;2023-08-08T12:12:53;15.90;99.90
14749;DHT22;7466;53.574;9.976;2023-08-08T12:15:21;15.70;99.90
14749;DHT22;7466;53.574;9.976;2023-08-08T12:17:49;15.50;99.90
14749;DHT22;7466;53.574;9.976;2023-08-08T12:20:16;15.80;99.90
14749;DHT22;7466;53.574;9.976;2023-08-08T12:22:43;16.40;99.90
14749;DHT22;7466;53.574;9.976;2023-08-08T12:25:10;17.00;99.90
14749;DHT22;7466;53.574;9.976;2023-08-08T12:27:38;17.40;99.90
14749;DHT22;7466;53.574;9.976;2023-08-08T12:30:06;17.10;99.90
14749;DHT22;7466;53.574;9.976;2023-08-08T12:32:34;17.40;99.90
14749;DHT22;7466;53.574;9.976;2023-08-08T12:35:01;17.60;99.90
14749;DHT22;7466;53.574;9.976;2023-08-08T12:37:28;17.30;99.90
14749;DHT22;7466;53.574;9.976;2023-08-08T12:39:54;17.80;99.90
14749;DHT22;7466;53.574;9.976;2023-08-08T12:42:22;18.30;99.90
14749;DHT22;7466;53.574;9.976;2023-08-08T12:44:48;19.00;99.90
14749;DHT22;7466;53.574;9.976;2023-08-08T12:47:17;19.10;99.90
14749;DHT22;7466;53.574;9.976;2023-08-08T12:49:45;19.10;99.90
14749;DHT22;7466;53.574;9.976;2023-08-08T12:52:12;18.80;99.90
14749;DHT22;7466;53.574;9.976;2023-08-08T12:54:39;19.20;99.90
14749;DHT22;7466;53.574;9.976;2023-08-08T12:57:05;19.00;99.90
14749;DHT22;7466;53.574;9.976;2023-08-08T12:59:32;18.70;99.90
14749;DHT22;7466;53.574;9.976;2023-08-08T13:01:59;18.30;99.90
14749;DHT22;7466;53.574;9.976;2023-08-08T13:04:25;17.90;99.90
14749;DHT22;7466;53.574;9.976;2023-08-08T13:06:53;17.30;99.90
14749;DHT22;7466;53.574;9.976;2023-08-08T13:09:20;16.90;99.90
14749;DHT22;7466;53.574;9.976;2023-08-08T13:11:47;16.10;99.90
14749;DHT22;7466;53.574;9.976;2023-08-08T13:14:14;15.30;99.90
14749;DHT22;7466;53.574;9.976;2023-08-08T13:16:41;15.00;99.90
14749;DHT22;7466;53.574;9.976;2023-08-08T13:19:08;14.90;99.90
14749;DHT22;7466;53.574;9.976;2023-08-08T13:21:35;14.90;99.90
14749;DHT22;7466;53.574;9.976;2023-08-08T13:24:04;15.30;99.90
14749;DHT22;7466;53.574;9.976;2023-08-08T13:26:30;16.90;99.90
14749;DHT22;7466;53.574;9.976;2023-08-08T13:28:57;18.40;99.90
14749;DHT22;7466;53.574;9.976;2023-08-08T13:31:24;20.60;99.90
14749;DHT22;7466;53.574;9.976;2023-08-08T13:33:51;21.90;99.90
14749;DHT22;7466;53.574;9.976;2023-08-08T13:36:17;22.10;99.90
14749;DHT22;7466;53.574;9.976;2023-08-08T13:38:44;22.40;99.90
14749;DHT22;7466;53.574;9.976;2023-08-08T13:41:12;22.40;99.90
14749;DHT22;7466;53.574;9.976;2023-08-08T13:43:39;22.30;99.90
14749;DHT22;7466;53.574;9.976;2023-08-08T13:46:05;21.20;99.90
14749;DHT22;7466;53.574;9.976;2023-08-08T13:48:35;20.20;99.90
14749;DHT22;7466;53.574;9.976;2023-08-08T13:51:02;19.40;99.90
14749;DHT22;7466;53.574;9.976;2023-08-08T13:53:29;18.50;99.90
14749;DHT22;7466;53.574;9.976;2023-08-08T13:55:56;16.90;99.90
14749;DHT22;7466;53.574;9.976;2023-08-08T13:58:24;16.50;99.90
14749;DHT22;7466;53.574;9.976;2023-08-08T14:00:51;16.10;99.90
14749;DHT22;7466;53.574;9.976;2023-08-08T14:03:18;15.90;99.90
14749;DHT22;7466;53.574;9.976;2023-08-08T14:05:45;15.30;99.90
14749;DHT22;7466;53.574;9.976;2023-08-08T14:08:12;15.40;99.90
14749;DHT22;7466;53.574;9.976;2023-08-08T14:10:39;15.30;99.90
14749;DHT22;7466;53.574;9.976;2023-08-08T14:13:05;15.30;99.90
14749;DHT22;7466;53.574;9.976;2023-08-08T14:15:34;15.30;99.90
14749;DHT22;7466;53.574;9.976;2023-08-08T14:18:00;15.40;99.90
14749;DHT22;7466;53.574;9.976;2023-08-08T14:20:27;15.20;99.90
14749;DHT22;7466;53.574;9.976;2023-08-08T14:22:54;15.20;99.90
14749;DHT22;7466;53.574;9.976;2023-08-08T14:25:21;15.60;99.90
14749;DHT22;7466;53.574;9.976;2023-08-08T14:27:48;15.50;99.90
14749;DHT22;7466;53.574;9.976;2023-08-08T14:30:14;15.50;99.90
14749;DHT22;7466;53.574;9.976;2023-08-08T14:32:43;15.40;99.90
14749;DHT22;7466;53.574;9.976;2023-08-08T14:35:09;15.40;99.90
14749;DHT22;7466;53.574;9.976;2023-08-08T14:37:38;15.50;99.90
14749;DHT22;7466;53.574;9.976;2023-08-08T14:40:05;15.70;99.90
14749;DHT22;7466;53.574;9.976;2023-08-08T14:42:32;15.70;99.90
14749;DHT22;7466;53.574;9.976;2023-08-08T14:44:59;16.50;99.90
14749;DHT22;7466;53.574;9.976;2023-08-08T14:47:26;16.80;99.90
14749;DHT22;7466;53.574;9.976;2023-08-08T14:49:54;17.10;99.90
14749;DHT22;7466;53.574;9.976;2023-08-08T14:52:20;17.00;99.90
14749;DHT22;7466;53.574;9.976;2023-08-08T14:54:47;17.10;99.90
14749;DHT22;7466;53.574;9.976;2023-08-08T14:57:14;17.10;99.90
14749;DHT22;7466;53.574;9.976;2023-08-08T14:59:40;17.10;99.90
14749;DHT22;7466;53.574;9.976;2023-08-08T15:02:08;17.10;99.90
14749;DHT22;7466;53.574;9.976;2023-08-08T15:04:34;17.00;99.90
14749;DHT22;7466;53.574;9.976;2023-08-08T15:07:02;16.60;99.90
14749;DHT22;7466;53.574;9.976;2023-08-08T15:09:29;16.50;99.90
14749;DHT22;7466;53.574;9.976;2023-08-08T15:11:56;16.40;99.90
14749;DHT22;7466;53.574;9.976;2023-08-08T15:14:22;16.40;99.90
14749;DHT22;7466;53.574;9.976;2023-08-08T15:16:50;16.20;99.90
14749;DHT22;7466;53.574;9.976;2023-08-08T15:19:17;16.10;99.90
14749;DHT22;7466;53.574;9.976;2023-08-08T15:21:44;16.10;99.90
14749;DHT22;7466;53.574;9.976;2023-08-08T15:24:13;16.00;99.90
14749;DHT22;7466;53.574;9.976;2023-08-08T15:26:40;16.00;99.90
14749;DHT22;7466;53.574;9.976;2023-08-08T15:29:06;15.90;99.90
14749;DHT22;7466;53.574;9.976;2023-08-08T15:31:33;15.70;99.90
14749;DHT22;7466;53.574;9.976;2023-08-08T15:34:00;15.60;99.90
14749;DHT22;7466;53.574;9.976;2023-08-08T15:36:27;15.40;99.90
14749;DHT22;7466;53.574;9.976;2023-08-08T15:38:53;15.30;99.90
14749;DHT22;7466;53.574;9.976;2023-08-08T15:41:22;14.90;99.90
14749;DHT22;7466;53.574;9.976;2023-08-08T15:43:48;14.80;99.90
14749;DHT22;7466;53.574;9.976;2023-08-08T15:46:15;14.70;99.90
14749;DHT22;7466;53.574;9.976;2023-08-08T15:48:43;14.60;99.90